createdAt,value
2019-01-31T00:00:01.209Z,93962.00
2019-01-31T00:05:43.904Z,93958.00
2019-01-31T00:11:32.925Z,93950.00
2019-01-31T00:17:31.895Z,93945.00
2019-01-31T00:23:20.926Z,93947.00
2019-01-31T00:29:22.197Z,93948.00
2019-01-31T00:35:23.449Z,93946.00
2019-01-31T00:41:09.119Z,93949.00
2019-01-31T00:46:57.975Z,93944.00
2019-01-31T00:52:34.872Z,93931.00
2019-01-31T00:58:17.722Z,93936.00
2019-01-31T01:04:28.044Z,93937.00
2019-01-31T01:10:30.688Z,93933.00
2019-01-31T01:16:15.858Z,93939.00
2019-01-31T01:21:59.118Z,93941.00
2019-01-31T01:27:51.171Z,93936.00
2019-01-31T01:33:34.032Z,93935.00
2019-01-31T01:39:59.808Z,93931.00
2019-01-31T01:45:42.517Z,93921.00
2019-01-31T01:51:22.115Z,93922.00
2019-01-31T01:56:56.189Z,93915.00
2019-01-31T02:03:04.343Z,93920.00
2019-01-31T02:09:08.501Z,93911.00
2019-01-31T02:15:06.483Z,93893.00
2019-01-31T02:21:15.150Z,93892.00
2019-01-31T02:27:17.439Z,93885.00
2019-01-31T02:33:23.291Z,93875.00
2019-01-31T02:39:24.359Z,93877.00
2019-01-31T02:45:04.200Z,93861.00
2019-01-31T02:50:47.332Z,93857.00
2019-01-31T02:56:33.243Z,93853.00
2019-01-31T03:02:22.247Z,93844.00
2019-01-31T03:08:20.812Z,93838.00
2019-01-31T03:14:10.276Z,93833.00
2019-01-31T03:19:51.860Z,93828.00
2019-01-31T03:25:25.980Z,93819.00
2019-01-31T03:31:25.657Z,93816.00
2019-01-31T03:37:05.343Z,93819.00
2019-01-31T03:42:54.405Z,93811.00
2019-01-31T03:48:40.322Z,93804.00
2019-01-31T03:54:36.810Z,93799.00
2019-01-31T04:00:13.402Z,93798.00
2019-01-31T04:05:47.493Z,93789.00
2019-01-31T04:11:16.932Z,93791.00
2019-01-31T04:16:46.255Z,93781.00
2019-01-31T04:22:15.572Z,93775.00
2019-01-31T04:27:45.035Z,93765.00
2019-01-31T04:33:14.525Z,93751.00
2019-01-31T04:38:43.862Z,93750.00
2019-01-31T04:44:13.185Z,93745.00
2019-01-31T04:49:42.518Z,93741.00
2019-01-31T04:55:12.294Z,93733.00
2019-01-31T05:00:42.285Z,93735.00
2019-01-31T05:06:11.582Z,93732.00
2019-01-31T05:11:41.006Z,93746.00
2019-01-31T05:17:10.758Z,93744.00
2019-01-31T05:22:41.256Z,93744.00
2019-01-31T05:28:16.872Z,93737.00
2019-01-31T05:33:46.214Z,93753.00
2019-01-31T05:39:15.538Z,93752.00
2019-01-31T05:44:45.092Z,93756.00
2019-01-31T05:50:18.156Z,93750.00
2019-01-31T05:55:48.081Z,93750.00
2019-01-31T06:01:17.714Z,93754.00
2019-01-31T06:06:47.222Z,93746.00
2019-01-31T06:12:16.694Z,93743.00
2019-01-31T06:17:46.350Z,93750.00
2019-01-31T06:23:20.102Z,93750.00
2019-01-31T06:28:49.432Z,93756.00
2019-01-31T06:34:18.867Z,93764.00
2019-01-31T06:39:48.210Z,93761.00
2019-01-31T06:45:20.267Z,93766.00
2019-01-31T06:50:49.656Z,93766.00
2019-01-31T06:56:19.101Z,93773.00
2019-01-31T07:01:48.569Z,93773.00
2019-01-31T07:07:18.085Z,93771.00
2019-01-31T07:12:47.406Z,93776.00
2019-01-31T07:18:16.762Z,93764.00
2019-01-31T07:23:46.150Z,93773.00
2019-01-31T07:29:15.522Z,93777.00
2019-01-31T07:34:44.872Z,93764.00
2019-01-31T07:40:20.410Z,93759.00
2019-01-31T07:45:49.722Z,93758.00
2019-01-31T07:51:19.058Z,93773.00
2019-01-31T07:56:48.493Z,93775.00
2019-01-31T08:02:17.936Z,93781.00
2019-01-31T08:07:48.156Z,93775.00
2019-01-31T08:13:17.733Z,93771.00
2019-01-31T08:18:47.040Z,93773.00
2019-01-31T08:24:16.408Z,93762.00
2019-01-31T08:29:45.908Z,93776.00
2019-01-31T08:35:15.824Z,93789.00
2019-01-31T08:40:45.200Z,93788.00
2019-01-31T08:46:14.540Z,93795.00
2019-01-31T08:51:43.868Z,93791.00
2019-01-31T08:57:13.402Z,93780.00
2019-01-31T09:02:42.718Z,93776.00
2019-01-31T09:08:12.124Z,93784.00
2019-01-31T09:13:41.523Z,93793.00
2019-01-31T09:19:11.056Z,93789.00
2019-01-31T09:24:56.565Z,93796.00
2019-01-31T09:30:36.583Z,93786.00
2019-01-31T09:36:13.215Z,93802.00
2019-01-31T09:42:12.899Z,93810.00
2019-01-31T09:47:49.637Z,93806.00
2019-01-31T09:53:59.958Z,93807.00
2019-01-31T09:59:39.889Z,93807.00
2019-01-31T10:05:42.356Z,93801.00
2019-01-31T10:11:58.915Z,93815.00
2019-01-31T10:17:53.425Z,93820.00
2019-01-31T10:23:47.986Z,93804.00
2019-01-31T10:29:47.180Z,93803.00
2019-01-31T10:35:41.434Z,93796.00
2019-01-31T10:41:35.974Z,93787.00
2019-01-31T10:47:30.850Z,93785.00
2019-01-31T10:53:36.590Z,93779.00
2019-01-31T10:59:28.783Z,93782.00
2019-01-31T11:05:22.419Z,93778.00
2019-01-31T11:11:01.609Z,93774.00
2019-01-31T11:16:44.312Z,93765.00
2019-01-31T11:22:45.541Z,93766.00
2019-01-31T11:28:31.450Z,93765.00
2019-01-31T11:34:32.728Z,93766.00
2019-01-31T11:40:15.510Z,93753.00
2019-01-31T11:45:58.182Z,93754.00
2019-01-31T11:51:54.660Z,93745.00
2019-01-31T11:58:01.981Z,93750.00
2019-01-31T12:03:31.626Z,93750.00
2019-01-31T12:09:01.034Z,93747.00
2019-01-31T12:14:30.430Z,93741.00
2019-01-31T12:19:59.748Z,93722.00
2019-01-31T12:25:29.298Z,93730.00
2019-01-31T12:30:58.772Z,93720.00
2019-01-31T12:36:28.250Z,93712.00
2019-01-31T12:41:57.666Z,93704.00
2019-01-31T12:47:27.149Z,93706.00
2019-01-31T12:52:56.716Z,93707.00
2019-01-31T12:58:33.344Z,93705.00
2019-01-31T13:03:57.356Z,93678.00
2019-01-31T13:09:28.403Z,93679.00
2019-01-31T13:15:00.052Z,93671.00
2019-01-31T13:20:29.531Z,93658.00
2019-01-31T13:25:58.984Z,93671.00
2019-01-31T13:31:28.509Z,93668.00
2019-01-31T13:36:57.976Z,93665.00
2019-01-31T13:42:27.430Z,93668.00
2019-01-31T13:48:01.637Z,93671.00
2019-01-31T13:53:31.023Z,93675.00
2019-01-31T13:59:00.443Z,93684.00
2019-01-31T14:04:29.887Z,93680.00
2019-01-31T14:09:59.285Z,93681.00
2019-01-31T14:15:34.126Z,93680.00
2019-01-31T14:21:03.674Z,93679.00
2019-01-31T14:26:32.980Z,93674.00
2019-01-31T14:32:02.334Z,93676.00
2019-01-31T14:37:31.857Z,93676.00
2019-01-31T14:43:01.265Z,93673.00
2019-01-31T14:48:30.576Z,93671.00
2019-01-31T14:53:59.908Z,93677.00
2019-01-31T14:59:29.472Z,93681.00
2019-01-31T15:04:58.872Z,93682.00
2019-01-31T15:10:32.435Z,93681.00
2019-01-31T15:16:01.855Z,93692.00
2019-01-31T15:21:31.396Z,93689.00
2019-01-31T15:27:00.784Z,93700.00
2019-01-31T15:32:32.878Z,93704.00
2019-01-31T15:38:01.473Z,93700.00
2019-01-31T15:43:30.844Z,93666.00
2019-01-31T15:49:02.402Z,93687.00
2019-01-31T15:54:32.014Z,93689.00
2019-01-31T16:00:01.441Z,93688.00
2019-01-31T16:05:30.882Z,93685.00
2019-01-31T16:11:00.285Z,93680.00
2019-01-31T16:16:29.701Z,93680.00
2019-01-31T16:21:59.097Z,93668.00
2019-01-31T16:27:32.316Z,93645.00
2019-01-31T16:33:01.769Z,93663.00
2019-01-31T16:38:31.151Z,93665.00
2019-01-31T16:44:00.852Z,93675.00
2019-01-31T16:49:30.317Z,93670.00
2019-01-31T16:54:59.919Z,93672.00
2019-01-31T17:00:34.120Z,93671.00
2019-01-31T17:06:03.910Z,93676.00
2019-01-31T17:11:33.649Z,93673.00
2019-01-31T17:17:03.086Z,93673.00
2019-01-31T17:22:32.442Z,93667.00
2019-01-31T17:28:01.832Z,93652.00
2019-01-31T17:33:31.388Z,93650.00
2019-01-31T17:39:01.277Z,93634.00
2019-01-31T17:44:30.982Z,93620.00
2019-01-31T17:50:00.470Z,93606.00
2019-01-31T17:55:30.583Z,93588.00
2019-01-31T18:01:00.275Z,93590.00
2019-01-31T18:06:29.858Z,93598.00
2019-01-31T18:12:00.599Z,93588.00
2019-01-31T18:17:30.205Z,93613.00
2019-01-31T18:22:59.893Z,93595.00
2019-01-31T18:28:30.831Z,93593.00
2019-01-31T18:34:00.404Z,93586.00
2019-01-31T18:39:30.129Z,93558.00
2019-01-31T18:45:00.062Z,93570.00
2019-01-31T18:50:32.520Z,93556.00
2019-01-31T18:56:02.039Z,93548.00
2019-01-31T19:01:31.807Z,93567.00
2019-01-31T19:07:01.717Z,93556.00
2019-01-31T19:12:31.671Z,93549.00
2019-01-31T19:18:11.579Z,93544.00
2019-01-31T19:23:42.181Z,93541.00
2019-01-31T19:29:12.546Z,93523.00
2019-01-31T19:34:42.035Z,93522.00
2019-01-31T19:40:16.064Z,93510.00
2019-01-31T19:45:48.440Z,93513.00
2019-01-31T19:51:21.207Z,93507.00
2019-01-31T19:57:21.660Z,93495.00
2019-01-31T20:22:33.308Z,93449.00
2019-01-31T20:34:49.190Z,93437.00
2019-01-31T20:40:28.377Z,93435.00
2019-01-31T20:51:58.027Z,93439.00
2019-01-31T20:57:28.152Z,93432.00
2019-01-31T21:02:57.985Z,93433.00
2019-01-31T21:08:28.096Z,93430.00
2019-01-31T21:13:57.910Z,93424.00
2019-01-31T21:19:30.628Z,93416.00
2019-01-31T21:24:59.201Z,93399.00
2019-01-31T21:30:33.504Z,93410.00
2019-01-31T21:36:03.501Z,93380.00
2019-01-31T21:41:37.138Z,93368.00
2019-01-31T21:47:06.596Z,93364.00
2019-01-31T21:52:36.165Z,93367.00
2019-01-31T21:58:05.914Z,93353.00
2019-01-31T22:03:35.883Z,93349.00
2019-01-31T22:09:08.492Z,93336.00
2019-01-31T22:14:38.008Z,93344.00
2019-01-31T22:20:10.195Z,93342.00
2019-01-31T22:25:39.875Z,93351.00
2019-01-31T22:31:09.305Z,93351.00
2019-01-31T22:36:38.740Z,93355.00
2019-01-31T22:42:08.053Z,93336.00
2019-01-31T22:47:42.735Z,93332.00
2019-01-31T22:53:12.235Z,93325.00
2019-01-31T22:58:42.606Z,93315.00
2019-01-31T23:04:12.349Z,93344.00
2019-01-31T23:09:41.703Z,93335.00
2019-01-31T23:15:11.881Z,93330.00
2019-01-31T23:20:44.270Z,93337.00
2019-01-31T23:26:12.673Z,93330.00
2019-01-31T23:31:42.103Z,93314.00
2019-01-31T23:37:11.487Z,93320.00
2019-01-31T23:42:40.938Z,93312.00
2019-01-31T23:48:10.384Z,93295.00
2019-01-31T23:53:39.759Z,93258.00
2019-01-31T23:59:09.137Z,93247.00
